This is the latest recevied weather packets stored in our database for station/object N2XGL-1. If no packets are shown the sender has not sent any weather packets the latest 10 day(s).
| Time | Temp. | Humidity | Pressure | Rain* | Wind** | Luminosity | Snow |
|---|---|---|---|---|---|---|---|
| 1777663094 | 16.67° C | 28% | 1017.2 hPa | 0 mm | - | - | - |
| 1777662604 | 16.11° C | 26% | 1017.3 hPa | 0 mm | - | - | - |
| 1777662040 | 16.11° C | 27% | 1017.5 hPa | 0 mm | - | - | - |
| 1777660401 | 15.56° C | 27% | 1017.6 hPa | 0 mm | - | - | - |
| 1777659843 | 15° C | 29% | 1017.8 hPa | 0 mm | - | - | - |
| 1777658199 | 15.56° C | 32% | 1018.1 hPa | 0 mm | - | - | - |
| 1777657621 | 15.56° C | 31% | 1018.2 hPa | 0 mm | - | - | - |
| 1777656461 | 15.56° C | 32% | 1018.5 hPa | 0 mm | - | - | - |
| 1777655389 | 15.56° C | 32% | 1018.7 hPa | 0 mm | - | - | - |
| 1777653874 | 14.44° C | 32% | 1018.9 hPa | 0 mm | - | - | - |
| 1777652794 | 13.89° C | 35% | 1018.9 hPa | 0 mm | - | - | - |
| 1777652269 | 13.89° C | 33% | 1018.9 hPa | 0 mm | - | - | - |
| 1777651744 | 13.33° C | 34% | 1018.9 hPa | 0 mm | - | - | - |
| 1777650612 | 13.33° C | 35% | 1018.9 hPa | 0 mm | - | - | - |
| 1777650079 | 12.78° C | 37% | 1018.9 hPa | 0 mm | - | - | - |
| 1777649081 | 11.67° C | 41% | 1019.2 hPa | 0 mm | - | - | - |
| 1777648601 | 11.67° C | 41% | 1019.2 hPa | 0 mm | - | - | - |
| 1777648069 | 11.11° C | 42% | 1019.2 hPa | 0 mm | - | - | - |
| 1777646562 | 11.11° C | 42% | 1019.2 hPa | 0 mm | - | - | - |
| 1777646044 | 10.56° C | 45% | 1019.3 hPa | 0 mm | - | - | - |
| 1777645524 | 10.56° C | 45% | 1019.3 hPa | 0 mm | - | - | - |
| 1777644931 | 9.44° C | 49% | 1019.3 hPa | 0 mm | - | - | - |
| 1777644337 | 7.78° C | 56% | 1019.4 hPa | 0 mm | - | - | - |
| 1777643837 | 6.11° C | 63% | 1019.4 hPa | 0 mm | - | - | - |
| 1777643318 | 3.89° C | 74% | 1019.4 hPa | 0 mm | - | - | - |
* Rain latest hour (hover to see other rain measurements)
** Current wind speed in m/s (hover to see current wind gust speed)